Kellys Korner, Washington
Current Conditions -  °F | °C
As of 11:54 PM on Sunday 23 Nov 2014 (Local Time) from KOLM Reporting Station
Clear Clear  
Wind Chill: 38°   Ceiling: Unl
Heat Index: 41°   Visibility: 10mi
Dew Point: 40°   Wind: 5mph
Humidity: 96%   Direction: 190°S
Pressure: 30.37"   Gusts: NA
Location:  46.9679°N, 122.834°W
Report Text: KOLM 240754Z AUTO 19004KT 10SM CLR 05/04 A3037 RMK AO2 SLP284 T00500044 401220044 $
Loading
Personal Weather Stations






























Interactive Weather Map New forecast layout! Learn more

10-Day Weather Forecast

Advertisements
Track Severe Weather on mobile